Time;durP1;ratioP1;P1;durP2;ratioP2;P2;SDS_P1;SDS_P2;PMS_P1;PMS_P2;Temp;Humidity;BMP_temperature;BMP_pressure;BME280_temperature;BME280_humidity;BME280_pressure;Samples;Min_cycle;Max_cycle;Signal;HPM_P1;HPM_P2
2022/08/11 00:01:51;;;;;;;0.98;0.70;;;26.30;39.40;;;;;;5035024;28;20029;-64
2022/08/11 00:04:20;;;;;;;0.73;0.70;;;26.30;39.40;;;;;;5034879;28;20441;-64
2022/08/11 00:06:47;;;;;;;1.77;1.08;;;26.30;39.40;;;;;;5032643;28;20366;-63
2022/08/11 00:09:18;;;;;;;1.15;0.70;;;26.40;39.50;;;;;;5034905;28;20033;-64
2022/08/11 00:11:52;;;;;;;1.35;0.80;;;26.30;39.50;;;;;;5010330;28;20109;-61
2022/08/11 00:14:30;;;;;;;0.98;0.70;;;26.30;39.50;;;;;;5027328;28;20057;-63
2022/08/11 00:17:06;;;;;;;0.90;0.77;;;26.30;39.50;;;;;;5014629;28;20029;-60
2022/08/11 00:19:38;;;;;;;0.90;0.77;;;26.30;39.60;;;;;;5034677;28;20132;-65
2022/08/11 00:22:05;;;;;;;1.55;0.93;;;26.30;39.60;;;;;;5034603;28;20461;-66
2022/08/11 00:24:33;;;;;;;0.77;0.60;;;26.30;39.70;;;;;;5034296;28;20030;-64
2022/08/11 00:26:59;;;;;;;1.05;0.80;;;26.30;39.70;;;;;;5032223;28;20036;-61
2022/08/11 00:29:26;;;;;;;1.27;0.95;;;26.30;39.70;;;;;;5017384;28;20021;-62
2022/08/11 00:31:53;;;;;;;2.30;0.93;;;26.30;39.80;;;;;;5034829;28;20045;-62
2022/08/11 00:34:26;;;;;;;0.70;0.70;;;26.30;39.80;;;;;;5034519;28;20061;-62
2022/08/11 00:36:59;;;;;;;1.25;0.90;;;26.30;39.80;;;;;;5034017;28;20048;-61
2022/08/11 00:39:26;;;;;;;1.45;0.77;;;26.20;39.80;;;;;;5033462;28;20025;-63
2022/08/11 00:42:29;;;;;;;1.00;0.90;;;26.30;39.90;;;;;;5033321;28;20022;-64
2022/08/11 00:44:58;;;;;;;0.80;0.63;;;26.20;39.90;;;;;;5033575;28;20056;-62
2022/08/11 00:47:47;;;;;;;1.67;0.90;;;26.20;39.90;;;;;;5035227;28;20025;-62
2022/08/11 00:50:20;;;;;;;1.13;0.90;;;26.20;40.00;;;;;;5034746;28;20025;-63
2022/08/11 00:53:07;;;;;;;1.42;0.80;;;26.20;40.00;;;;;;5033760;28;20033;-63
2022/08/11 00:55:54;;;;;;;1.42;0.60;;;26.20;40.00;;;;;;5033704;28;20069;-61
2022/08/11 00:58:45;;;;;;;1.38;0.70;;;26.20;40.00;;;;;;5034590;28;20107;-62
2022/08/11 01:01:17;;;;;;;1.50;0.90;;;26.20;40.10;;;;;;5038524;28;20044;-63
2022/08/11 01:04:10;;;;;;;1.23;0.90;;;26.20;40.10;;;;;;5019863;28;20036;-62
2022/08/11 01:07:12;;;;;;;1.83;0.80;;;26.20;40.20;;;;;;5038461;28;20080;-62
2022/08/11 01:10:00;;;;;;;1.40;0.82;;;26.20;40.20;;;;;;5038801;28;20095;-64
2022/08/11 01:12:53;;;;;;;1.23;0.70;;;26.20;40.20;;;;;;5035814;28;20029;-62
2022/08/11 01:15:58;;;;;;;0.88;0.80;;;26.10;40.20;;;;;;5016896;28;20098;-62
2022/08/11 01:18:57;;;;;;;1.15;0.68;;;26.10;40.20;;;;;;5037011;28;20057;-61
2022/08/11 01:21:29;;;;;;;1.35;0.70;;;26.10;40.30;;;;;;5037805;28;20081;-66
2022/08/11 01:24:32;;;;;;;1.17;0.73;;;26.10;40.30;;;;;;5038163;28;20021;-65
2022/08/11 01:27:14;;;;;;;0.77;0.60;;;26.10;40.30;;;;;;5036394;28;20351;-62
2022/08/11 01:30:04;;;;;;;1.48;0.90;;;26.10;40.40;;;;;;5038057;28;20037;-62
2022/08/11 01:32:35;;;;;;;1.15;0.70;;;26.10;40.40;;;;;;5037623;28;20041;-63
2022/08/11 01:36:02;;;;;;;1.13;0.70;;;26.10;40.40;;;;;;5035995;28;20131;-62
2022/08/11 01:39:05;;;;;;;1.25;0.85;;;26.10;40.40;;;;;;4953449;29;20058;-64
2022/08/11 01:45:02;;;;;;;2.10;0.85;;;26.00;40.50;;;;;;5036714;28;20037;-65
2022/08/11 01:47:50;;;;;;;0.98;0.70;;;26.00;40.50;;;;;;5036239;28;20040;-62
2022/08/11 01:50:50;;;;;;;1.40;0.82;;;26.00;40.50;;;;;;5037388;28;20033;-62
2022/08/11 01:53:37;;;;;;;1.48;0.80;;;26.00;40.50;;;;;;5004043;28;20073;-63
2022/08/11 01:56:07;;;;;;;1.48;1.10;;;26.00;40.60;;;;;;5006729;28;20123;-64
2022/08/11 01:58:57;;;;;;;1.13;0.60;;;26.00;40.60;;;;;;5037195;28;20341;-61
2022/08/11 02:01:44;;;;;;;1.13;0.80;;;26.00;40.60;;;;;;5032604;28;20049;-63
2022/08/11 02:04:41;;;;;;;1.35;0.88;;;26.00;40.60;;;;;;5037177;28;20103;-60
2022/08/11 02:07:25;;;;;;;1.58;0.90;;;26.00;40.60;;;;;;5017504;28;20038;-64
2022/08/11 02:13:36;;;;;;;0.70;0.70;;;26.00;40.70;;;;;;5035701;28;20037;-65
2022/08/11 02:16:39;;;;;;;0.98;0.73;;;26.00;40.70;;;;;;4996302;28;20080;-62
2022/08/11 02:25:33;;;;;;;0.95;0.80;;;25.90;40.80;;;;;;5036370;28;20333;-60
2022/08/11 02:28:27;;;;;;;0.68;0.68;;;25.90;40.90;;;;;;5026502;28;20048;-62
2022/08/11 02:34:23;;;;;;;1.63;0.70;;;25.90;40.90;;;;;;5035776;28;20095;-64
2022/08/11 02:37:14;;;;;;;0.80;0.70;;;25.90;41.00;;;;;;5036514;28;20025;-65
2022/08/11 02:39:58;;;;;;;2.05;0.90;;;25.90;41.00;;;;;;5035963;28;20065;-61
2022/08/11 02:42:39;;;;;;;0.68;0.60;;;25.90;41.00;;;;;;5033552;28;20036;-63
2022/08/11 02:45:27;;;;;;;1.05;0.70;;;25.90;41.10;;;;;;5035358;28;20030;-64
2022/08/11 02:51:15;;;;;;;1.15;0.80;;;25.90;41.20;;;;;;5035667;28;20036;-63
2022/08/11 02:54:05;;;;;;;0.98;0.82;;;25.80;41.10;;;;;;5036296;28;20032;-65
2022/08/11 02:57:08;;;;;;;0.60;0.60;;;25.90;41.20;;;;;;5033725;28;20043;-61
2022/08/11 03:00:00;;;;;;;1.00;0.80;;;25.80;41.20;;;;;;5020523;28;20445;-64
2022/08/11 03:02:42;;;;;;;0.80;0.63;;;25.80;41.20;;;;;;5035447;28;20025;-67
2022/08/11 03:05:10;;;;;;;1.40;0.85;;;25.80;41.30;;;;;;5011310;28;20464;-64
2022/08/11 03:07:39;;;;;;;1.00;0.70;;;25.80;41.30;;;;;;5035640;28;20032;-63
2022/08/11 03:10:24;;;;;;;1.55;0.70;;;25.80;41.30;;;;;;5033782;28;20045;-63
2022/08/11 03:18:56;;;;;;;1.55;0.80;;;25.80;41.40;;;;;;5036526;28;20216;-64
2022/08/11 03:21:30;;;;;;;1.85;0.75;;;25.80;41.40;;;;;;5033767;28;20128;-64
2022/08/11 03:24:13;;;;;;;1.35;0.93;;;25.80;41.50;;;;;;5033143;28;20091;-63
2022/08/11 03:26:41;;;;;;;0.98;0.88;;;25.80;41.50;;;;;;5034818;28;20033;-65
2022/08/11 03:29:19;;;;;;;2.30;1.00;;;25.70;41.40;;;;;;5035816;28;20332;-62
2022/08/11 03:32:06;;;;;;;1.25;0.70;;;25.80;41.50;;;;;;5018293;28;20372;-63
2022/08/11 03:34:36;;;;;;;1.30;1.02;;;25.80;42.20;;;;;;5032297;28;20033;-65
2022/08/11 03:43:25;;;;;;;0.90;0.77;;;25.70;41.50;;;;;;5034352;28;20030;-66
2022/08/11 03:46:13;;;;;;;0.90;0.63;;;25.70;41.50;;;;;;5033284;28;20567;-62
2022/08/11 03:48:48;;;;;;;1.90;0.98;;;25.70;41.50;;;;;;5034901;28;20025;-65
2022/08/11 03:51:19;;;;;;;1.85;1.02;;;25.70;41.60;;;;;;5036029;28;20037;-62
2022/08/11 03:54:10;;;;;;;1.48;0.75;;;25.70;41.60;;;;;;5032852;28;20187;-64
2022/08/11 03:57:20;;;;;;;2.13;1.05;;;25.70;41.60;;;;;;5020212;28;20041;-63
2022/08/11 04:00:09;;;;;;;1.67;1.00;;;25.70;41.60;;;;;;4955005;29;20043;-65
2022/08/11 04:02:55;;;;;;;1.10;0.93;;;25.60;41.50;;;;;;4951078;28;20043;-63
2022/08/11 04:05:58;;;;;;;1.38;1.00;;;25.70;41.60;;;;;;5003321;28;20097;-63
2022/08/11 04:08:42;;;;;;;1.27;0.90;;;25.60;41.60;;;;;;5020364;28;20436;-63
2022/08/11 04:11:10;;;;;;;0.95;0.70;;;25.60;41.60;;;;;;5032952;28;20061;-64
2022/08/11 04:17:18;;;;;;;2.25;1.13;;;25.60;41.70;;;;;;5035077;28;20032;-63
2022/08/11 04:20:07;;;;;;;0.80;0.80;;;25.60;41.80;;;;;;5015351;28;20037;-63
2022/08/11 04:22:51;;;;;;;1.15;0.90;;;25.60;41.80;;;;;;5022032;28;20453;-61
2022/08/11 04:25:35;;;;;;;1.10;0.80;;;25.60;41.80;;;;;;5025279;28;20513;-62
2022/08/11 04:28:04;;;;;;;1.92;0.80;;;25.60;41.80;;;;;;5034003;28;20095;-64
2022/08/11 04:31:04;;;;;;;2.05;1.10;;;25.60;41.80;;;;;;5034656;28;20453;-62
2022/08/11 04:33:47;;;;;;;1.25;0.75;;;25.60;41.80;;;;;;5033734;28;20037;-63
2022/08/11 04:40:06;;;;;;;1.35;0.80;;;25.60;41.80;;;;;;5038120;28;20057;-64
2022/08/11 04:46:12;;;;;;;1.48;0.90;;;25.60;41.90;;;;;;5028727;28;20029;-63
2022/08/11 05:01:49;;;;;;;1.48;0.90;;;25.60;41.90;;;;;;5037710;28;20112;-65
2022/08/11 05:08:03;;;;;;;1.35;0.90;;;25.50;41.80;;;;;;5037990;28;20064;-62
2022/08/11 05:10:57;;;;;;;1.77;1.20;;;25.60;41.90;;;;;;5004621;28;20091;-62
2022/08/11 05:36:51;;;;;;;1.27;0.88;;;25.60;41.90;;;;;;5007468;28;20092;-63
2022/08/11 05:56:33;;;;;;;1.52;0.90;;;25.60;41.90;;;;;;5037627;28;20095;-62
2022/08/11 05:59:00;;;;;;;1.40;0.98;;;25.60;41.90;;;;;;5019424;28;20334;-63
2022/08/11 06:01:32;;;;;;;2.90;1.00;;;25.60;41.90;;;;;;5018571;28;20095;-62
2022/08/11 06:04:13;;;;;;;1.58;0.82;;;25.60;41.80;;;;;;5037167;28;20089;-65
2022/08/11 06:06:56;;;;;;;1.38;0.95;;;25.60;41.80;;;;;;5034602;28;20124;-65
2022/08/11 06:09:25;;;;;;;0.98;0.90;;;25.60;41.80;;;;;;5032645;28;20046;-63
2022/08/11 06:11:52;;;;;;;3.17;1.25;;;25.60;41.80;;;;;;5037363;28;20029;-63
2022/08/11 06:14:21;;;;;;;2.08;1.00;;;25.60;41.80;;;;;;5036603;28;20026;-62
2022/08/11 06:16:49;;;;;;;1.20;1.00;;;25.60;41.80;;;;;;5036477;28;20029;-62
2022/08/11 06:19:18;;;;;;;1.92;1.15;;;25.60;41.80;;;;;;5036564;28;20034;-61
2022/08/11 06:21:46;;;;;;;1.00;0.70;;;25.60;41.80;;;;;;5017759;28;20420;-64
2022/08/11 06:24:13;;;;;;;1.83;1.00;;;25.60;41.80;;;;;;5034109;28;20029;-63
2022/08/11 06:26:49;;;;;;;1.55;1.00;;;25.60;41.80;;;;;;5035777;28;20050;-61
2022/08/11 06:29:18;;;;;;;3.05;1.70;;;25.60;41.80;;;;;;5034327;28;20033;-61
2022/08/11 06:31:59;;;;;;;1.92;0.90;;;25.60;41.70;;;;;;5036442;28;20040;-62
2022/08/11 06:34:54;;;;;;;1.67;1.40;;;25.60;41.60;;;;;;5036481;28;20037;-63
2022/08/11 06:37:38;;;;;;;1.60;1.13;;;25.60;41.70;;;;;;5034607;28;20040;-62
2022/08/11 06:40:09;;;;;;;1.88;1.10;;;25.70;41.80;;;;;;5028842;28;20445;-61
2022/08/11 06:42:53;;;;;;;1.80;1.27;;;25.60;41.80;;;;;;5032513;28;20074;-62
2022/08/11 06:45:26;;;;;;;2.95;1.40;;;25.60;41.70;;;;;;5013582;28;20029;-63
2022/08/11 06:47:52;;;;;;;2.40;1.35;;;25.70;41.70;;;;;;5034733;28;20017;-61
2022/08/11 06:53:11;;;;;;;1.73;0.93;;;25.70;41.50;;;;;;5023427;28;20037;-62
2022/08/11 07:01:26;;;;;;;1.30;0.88;;;25.70;41.30;;;;;;5034883;28;20162;-63
2022/08/11 07:04:09;;;;;;;1.95;0.90;;;25.70;41.20;;;;;;5034595;28;20064;-62
2022/08/11 07:15:43;;;;;;;1.40;0.90;;;25.70;41.10;;;;;;5033174;28;20511;-61
2022/08/11 07:29:44;;;;;;;1.30;0.93;;;25.80;41.20;;;;;;5034617;28;20029;-60
2022/08/11 07:32:18;;;;;;;0.93;0.80;;;25.80;41.20;;;;;;5034076;28;20071;-59
2022/08/11 07:34:47;;;;;;;;;;;25.80;41.20;;;;;;5035988;28;20061;-61
2022/08/11 07:37:19;;;;;;;0.90;0.80;;;25.80;41.20;;;;;;5035353;28;19909;-62
2022/08/11 07:39:47;;;;;;;0.80;0.73;;;25.80;41.30;;;;;;5035037;28;20492;-61
2022/08/11 07:42:15;;;;;;;1.70;0.90;;;25.80;41.30;;;;;;5035580;28;20045;-61
2022/08/11 07:52:59;;;;;;;1.00;0.85;;;25.80;41.50;;;;;;5033926;28;20021;-62
2022/08/11 07:55:30;;;;;;;1.52;0.80;;;25.70;41.40;;;;;;5032957;28;20041;-62
2022/08/11 08:20:06;;;;;;;1.00;0.70;;;25.80;41.70;;;;;;5032156;28;20068;-60
2022/08/11 08:22:34;;;;;;;1.42;1.00;;;25.80;41.60;;;;;;5034800;28;20029;-63
2022/08/11 08:25:00;;;;;;;1.30;0.90;;;25.80;41.60;;;;;;5018149;28;20034;-62
2022/08/11 08:27:26;;;;;;;2.78;0.90;;;25.80;41.70;;;;;;5034967;28;20029;-60
2022/08/11 08:32:41;;;;;;;1.52;0.80;;;25.80;41.60;;;;;;5034860;28;20052;-62
2022/08/11 08:35:09;;;;;;;1.95;0.80;;;25.80;41.60;;;;;;5034907;28;20052;-62
2022/08/11 08:37:36;;;;;;;0.95;0.85;;;25.80;41.60;;;;;;5034707;28;20033;-61
2022/08/11 08:40:05;;;;;;;0.88;0.70;;;25.80;41.60;;;;;;5034539;28;20030;-62
2022/08/11 08:42:36;;;;;;;1.27;0.88;;;25.80;41.60;;;;;;5033397;28;20072;-62
2022/08/11 08:45:09;;;;;;;1.02;0.80;;;25.80;41.50;;;;;;5034566;28;20030;-62
2022/08/11 08:47:40;;;;;;;1.40;1.08;;;25.80;41.50;;;;;;5034651;28;20360;-61
2022/08/11 08:50:10;;;;;;;1.83;0.90;;;25.80;41.50;;;;;;5034631;28;20128;-62
2022/08/11 08:52:44;;;;;;;0.88;0.80;;;25.80;41.50;;;;;;5033679;28;20041;-61
2022/08/11 08:55:16;;;;;;;2.03;1.10;;;25.80;41.50;;;;;;5034505;28;20057;-62
2022/08/11 08:57:44;;;;;;;1.25;0.80;;;25.80;41.50;;;;;;5034228;28;20075;-61
2022/08/11 09:00:12;;;;;;;2.67;0.90;;;25.80;41.50;;;;;;5034224;28;20033;-62
2022/08/11 09:02:39;;;;;;;2.47;0.85;;;25.80;41.50;;;;;;5034512;28;20035;-61
2022/08/11 09:05:07;;;;;;;1.83;0.80;;;25.80;41.50;;;;;;5031244;28;20038;-63
2022/08/11 09:07:34;;;;;;;1.17;1.08;;;25.90;41.60;;;;;;5033532;28;20048;-62
2022/08/11 09:10:00;;;;;;;2.13;0.95;;;25.80;41.50;;;;;;5030623;28;20029;-62
2022/08/11 09:12:28;;;;;;;1.25;0.90;;;25.80;41.50;;;;;;5032377;28;20029;-63
2022/08/11 09:15:04;;;;;;;1.52;0.85;;;25.90;41.50;;;;;;5041050;28;20407;-61
2022/08/11 09:17:30;;;;;;;2.03;0.90;;;25.80;41.50;;;;;;5045012;28;20352;-63
2022/08/11 09:20:04;;;;;;;1.52;0.90;;;25.80;41.50;;;;;;5034195;28;20154;-60
2022/08/11 09:28:13;;;;;;;1.00;0.80;;;25.90;41.40;;;;;;5036613;28;20044;-63
2022/08/11 09:30:44;;;;;;;1.88;1.20;;;25.90;41.40;;;;;;5037186;28;20054;-62
2022/08/11 09:33:14;;;;;;;0.95;0.77;;;25.90;41.40;;;;;;5037232;28;20033;-62
2022/08/11 09:35:45;;;;;;;1.02;0.80;;;25.90;41.40;;;;;;5018972;28;20044;-61
2022/08/11 09:40:59;;;;;;;1.92;1.40;;;25.90;41.30;;;;;;5019269;28;20052;-61
2022/08/11 09:46:12;;;;;;;1.52;0.88;;;25.90;41.20;;;;;;5036717;28;20045;-61
2022/08/11 09:48:41;;;;;;;1.17;0.90;;;25.90;41.80;;;;;;5037429;28;20037;-60
2022/08/11 09:51:08;;;;;;;1.42;0.95;;;25.90;41.00;;;;;;5036966;28;20046;-62
2022/08/11 09:53:37;;;;;;;1.67;1.00;;;25.90;41.00;;;;;;5036459;28;20029;-60
2022/08/11 09:58:12;;;;;;;1.05;0.85;;;25.90;40.90;;;;;;5034141;28;20069;-61
2022/08/11 09:58:51;;;;;;;0.85;0.75;;;25.90;40.90;;;;;;5036898;28;20025;-62
2022/08/11 10:01:26;;;;;;;1.45;0.98;;;25.90;40.80;;;;;;5037396;28;20041;-63
2022/08/11 10:04:05;;;;;;;1.20;0.82;;;25.90;40.80;;;;;;5036561;28;20038;-61
2022/08/11 10:09:21;;;;;;;1.23;0.98;;;25.90;40.70;;;;;;5017325;28;20026;-61
2022/08/11 10:11:48;;;;;;;1.10;0.98;;;25.90;40.70;;;;;;5032534;28;20096;-62
2022/08/11 10:17:06;;;;;;;1.00;0.80;;;25.90;40.60;;;;;;5036512;28;20040;-61
2022/08/11 10:19:36;;;;;;;1.92;1.15;;;25.90;40.60;;;;;;5036776;28;20025;-60
2022/08/11 10:27:34;;;;;;;3.80;1.00;;;25.90;41.10;;;;;;5036341;28;20068;-61
2022/08/11 10:35:34;;;;;;;1.30;0.90;;;25.90;40.50;;;;;;5035805;28;20420;-64
2022/08/11 10:38:00;;;;;;;0.80;0.80;;;26.00;40.50;;;;;;5033918;28;20056;-61
2022/08/11 10:40:27;;;;;;;1.10;0.70;;;25.90;40.50;;;;;;5035431;28;20083;-62
2022/08/11 10:43:02;;;;;;;1.00;0.88;;;26.00;40.60;;;;;;5035819;28;20040;-63
2022/08/11 10:48:20;;;;;;;8.07;2.22;;;26.00;40.50;;;;;;5033842;28;20033;-64
2022/08/11 10:59:09;;;;;;;2.88;1.30;;;26.10;40.40;;;;;;5032616;28;20025;-62
2022/08/11 11:01:40;;;;;;;1.38;0.90;;;26.00;40.40;;;;;;5028128;28;20134;-62
2022/08/11 11:04:22;;;;;;;1.85;1.00;;;26.10;40.50;;;;;;5036046;28;20039;-63
2022/08/11 11:07:18;;;;;;;1.35;1.00;;;26.10;40.40;;;;;;5034476;28;20029;-63
2022/08/11 11:09:49;;;;;;;1.30;0.80;;;26.10;40.40;;;;;;5025873;28;20129;-62
2022/08/11 11:18:14;;;;;;;2.97;1.00;;;26.20;40.50;;;;;;5031022;28;20033;-63
2022/08/11 11:20:56;;;;;;;1.30;0.65;;;26.20;40.40;;;;;;5032675;28;20037;-63
2022/08/11 11:23:36;;;;;;;1.30;0.90;;;26.20;40.40;;;;;;5032098;28;20076;-62
2022/08/11 11:26:39;;;;;;;1.00;0.73;;;26.20;40.40;;;;;;5030125;28;20037;-64
2022/08/11 11:29:26;;;;;;;1.88;0.80;;;26.20;40.40;;;;;;5032394;28;20095;-66
2022/08/11 11:32:19;;;;;;;1.58;0.90;;;26.20;40.40;;;;;;5027667;28;20040;-67
2022/08/11 11:34:56;;;;;;;2.97;0.70;;;26.20;40.50;;;;;;5022078;28;20079;-68
2022/08/11 11:37:23;;;;;;;1.88;0.85;;;26.30;40.60;;;;;;5028983;28;20033;-68
2022/08/11 11:39:49;;;;;;;4.00;0.80;;;26.30;40.50;;;;;;5033742;28;20029;-68
2022/08/11 11:42:17;;;;;;;1.27;0.85;;;26.30;40.40;;;;;;5032867;28;20037;-67
2022/08/11 11:44:45;;;;;;;1.98;0.90;;;26.40;40.40;;;;;;5028847;28;20163;-65
2022/08/11 11:47:13;;;;;;;1.23;0.88;;;26.50;40.20;;;;;;5032256;28;20361;-64
2022/08/11 11:49:42;;;;;;;1.17;0.73;;;26.60;40.10;;;;;;5034491;28;20134;-62
2022/08/11 11:52:17;;;;;;;1.05;0.75;;;26.70;40.00;;;;;;5034939;28;20503;-64
2022/08/11 11:54:49;;;;;;;0.98;0.75;;;26.80;39.80;;;;;;5034916;28;20108;-64
2022/08/11 12:02:51;;;;;;;1.40;0.80;;;27.00;39.20;;;;;;5034848;28;20041;-64
2022/08/11 12:05:18;;;;;;;1.40;0.93;;;27.10;39.10;;;;;;5033470;28;20041;-64
2022/08/11 12:10:31;;;;;;;0.82;0.77;;;27.20;38.70;;;;;;5035254;28;20056;-64
2022/08/11 12:15:49;;;;;;;0.98;0.75;;;27.30;38.60;;;;;;5033932;28;20026;-64
2022/08/11 12:18:15;;;;;;;1.20;0.80;;;27.30;38.40;;;;;;5035071;28;20060;-66
2022/08/11 12:20:43;;;;;;;1.70;0.75;;;27.40;38.30;;;;;;5033077;28;20041;-63
2022/08/11 12:28:46;;;;;;;1.30;0.90;;;27.60;38.10;;;;;;5032862;28;20025;-66
2022/08/11 12:31:13;;;;;;;0.80;0.68;;;27.60;38.10;;;;;;5035362;28;20032;-63
2022/08/11 12:33:40;;;;;;;0.60;0.60;;;27.60;38.20;;;;;;5034936;28;20036;-63
2022/08/11 12:36:08;;;;;;;1.77;0.75;;;27.70;38.40;;;;;;5034657;28;20034;-62
2022/08/11 12:38:36;;;;;;;1.48;0.65;;;27.60;38.20;;;;;;5034799;28;20033;-64
2022/08/11 12:46:36;;;;;;;0.60;0.52;;;27.70;37.90;;;;;;5035028;28;20026;-63
2022/08/11 12:52:04;;;;;;;1.30;0.70;;;27.70;37.50;;;;;;5032489;28;20368;-62
2022/08/11 12:54:39;;;;;;;1.23;0.80;;;27.70;37.50;;;;;;5029425;28;20050;-62
2022/08/11 13:05:32;;;;;;;0.68;0.60;;;27.80;37.10;;;;;;5037342;28;20040;-63
2022/08/11 13:08:00;;;;;;;0.95;0.70;;;27.80;36.90;;;;;;5036543;28;20365;-63
2022/08/11 13:13:14;;;;;;;0.98;0.70;;;27.70;36.70;;;;;;5038192;28;20463;-62
2022/08/11 13:15:41;;;;;;;0.75;0.63;;;27.80;36.70;;;;;;5038040;28;20025;-63
2022/08/11 13:18:07;;;;;;;1.70;0.70;;;27.80;36.60;;;;;;5036417;28;20369;-61
2022/08/11 13:20:34;;;;;;;0.98;0.60;;;27.80;36.50;;;;;;5020417;28;20338;-63
2022/08/11 13:23:00;;;;;;;0.75;0.70;;;27.80;36.40;;;;;;5035550;28;20036;-65
2022/08/11 13:25:30;;;;;;;1.10;0.80;;;27.80;36.30;;;;;;5020767;28;20364;-57
2022/08/11 13:27:58;;;;;;;1.65;0.70;;;27.90;36.30;;;;;;5033450;28;20033;-55
2022/08/11 13:33:18;;;;;;;1.00;0.60;;;27.90;36.50;;;;;;5034415;28;20032;-60
2022/08/11 13:35:51;;;;;;;0.82;0.80;;;27.90;36.70;;;;;;5035925;28;20440;-61
2022/08/11 13:38:21;;;;;;;1.27;0.60;;;27.90;36.80;;;;;;5033915;28;20041;-62
2022/08/11 13:40:48;;;;;;;1.98;0.98;;;28.00;37.00;;;;;;5034569;28;20030;-62
2022/08/11 13:43:18;;;;;;;3.22;0.70;;;28.00;37.00;;;;;;5035920;28;20394;-61
2022/08/11 13:45:46;;;;;;;1.40;0.60;;;28.10;37.10;;;;;;5033332;28;20033;-58
2022/08/11 13:48:14;;;;;;;0.68;0.60;;;28.10;37.20;;;;;;5032732;28;20022;-57
2022/08/11 13:53:29;;;;;;;1.15;0.75;;;28.20;36.90;;;;;;5034577;28;20036;-60
2022/08/11 13:55:58;;;;;;;0.70;0.60;;;28.20;36.80;;;;;;5031204;28;20049;-57
2022/08/11 13:58:26;;;;;;;2.28;0.80;;;28.20;36.60;;;;;;5035358;28;20036;-58
2022/08/11 14:00:53;;;;;;;0.82;0.60;;;28.20;36.70;;;;;;5034800;28;20055;-57
2022/08/11 14:03:24;;;;;;;0.77;0.60;;;28.20;36.60;;;;;;5030476;28;20041;-58
2022/08/11 14:05:52;;;;;;;0.82;0.75;;;28.20;36.40;;;;;;5033638;28;20021;-57
2022/08/11 14:08:26;;;;;;;0.60;0.60;;;28.20;36.40;;;;;;5033908;28;20025;-58
2022/08/11 14:13:44;;;;;;;3.13;1.02;;;28.20;36.20;;;;;;5031440;28;20033;-56
2022/08/11 14:16:25;;;;;;;1.63;0.57;;;28.20;36.10;;;;;;5035276;28;20429;-59
2022/08/11 14:18:53;;;;;;;0.90;0.70;;;28.20;36.00;;;;;;5036179;28;20060;-58
2022/08/11 14:24:10;;;;;;;0.50;0.50;;;28.20;35.90;;;;;;5032502;28;20108;-55
2022/08/11 14:26:38;;;;;;;1.73;0.70;;;28.20;36.00;;;;;;5033900;28;20037;-57
2022/08/11 14:29:12;;;;;;;0.98;0.80;;;28.20;36.10;;;;;;5031750;28;20033;-61
2022/08/11 14:31:45;;;;;;;;;;;28.20;36.00;;;;;;5034009;28;20029;-57
2022/08/11 14:34:13;;;;;;;1.08;0.75;;;28.10;35.90;;;;;;5034149;28;20385;-60
2022/08/11 14:36:42;;;;;;;0.90;0.80;;;28.10;35.80;;;;;;5035005;28;20026;-59
2022/08/11 14:39:11;;;;;;;0.70;0.70;;;28.10;35.80;;;;;;5034352;28;20029;-57
2022/08/11 14:47:15;;;;;;;0.70;0.70;;;28.10;35.50;;;;;;5035117;28;20047;-57
2022/08/11 14:49:42;;;;;;;0.60;0.55;;;28.10;35.50;;;;;;5034534;28;20034;-60
2022/08/11 14:52:14;;;;;;;1.00;0.60;;;28.10;35.40;;;;;;5035709;28;20084;-58
2022/08/11 14:57:30;;;;;;;0.77;0.70;;;28.10;35.30;;;;;;5019459;28;20045;-57
2022/08/11 15:00:00;;;;;;;1.00;0.80;;;28.10;35.30;;;;;;5020249;28;20045;-60
2022/08/11 15:05:12;;;;;;;1.70;0.80;;;28.10;35.20;;;;;;5034636;28;20459;-59
2022/08/11 15:07:39;;;;;;;1.08;0.70;;;28.10;35.10;;;;;;5035440;28;20346;-57
2022/08/11 15:10:07;;;;;;;0.80;0.70;;;28.10;35.10;;;;;;5032722;28;20065;-60
2022/08/11 15:12:35;;;;;;;2.78;0.63;;;28.10;35.20;;;;;;5033628;28;20025;-60
2022/08/11 15:17:51;;;;;;;2.75;0.80;;;28.20;35.30;;;;;;5015414;28;20045;-56
2022/08/11 15:37:24;;;;;;;1.17;0.70;;;28.20;35.50;;;;;;5035019;28;20090;-58
2022/08/11 15:37:26;;;;;;;1.10;0.70;;;28.20;35.20;;;;;;5027520;28;20029;-54
2022/08/11 15:45:50;;;;;;;1.45;0.85;;;28.20;35.50;;;;;;5015846;28;20240;-57
2022/08/11 15:48:47;;;;;;;1.00;0.70;;;28.20;35.40;;;;;;5033064;28;20041;-57
2022/08/11 15:51:22;;;;;;;1.27;0.70;;;28.10;35.30;;;;;;5022247;28;20450;-55
2022/08/11 15:53:52;;;;;;;0.75;0.73;;;28.10;35.30;;;;;;5024649;28;20334;-56
2022/08/11 15:56:22;;;;;;;0.85;0.70;;;28.10;35.30;;;;;;5034776;28;20072;-51
2022/08/11 16:04:25;;;;;;;0.60;0.60;;;27.90;35.50;;;;;;5033140;28;20044;-58
2022/08/11 16:06:53;;;;;;;1.20;0.70;;;27.80;35.70;;;;;;5033751;28;20056;-54
2022/08/11 16:09:23;;;;;;;0.80;0.55;;;27.80;35.70;;;;;;5034311;28;20035;-55
2022/08/11 16:11:51;;;;;;;0.77;0.70;;;27.80;35.80;;;;;;5034374;28;20401;-58
2022/08/11 16:17:07;;;;;;;0.77;0.73;;;27.70;35.80;;;;;;5031940;28;20040;-54
2022/08/11 16:19:35;;;;;;;0.88;0.63;;;27.60;35.80;;;;;;5032891;28;20026;-54
2022/08/11 16:22:07;;;;;;;1.52;0.80;;;27.60;35.80;;;;;;5032143;28;20119;-57
2022/08/11 16:24:37;;;;;;;0.98;0.60;;;27.60;35.90;;;;;;5030631;28;20037;-53
2022/08/11 16:27:04;;;;;;;0.60;0.60;;;27.50;35.80;;;;;;5034277;28;20048;-57
2022/08/11 16:29:32;;;;;;;1.00;0.60;;;27.50;35.90;;;;;;5033195;28;20101;-54
2022/08/11 16:32:19;;;;;;;1.45;0.85;;;27.50;35.90;;;;;;5037724;28;20037;-56
2022/08/11 16:40:52;;;;;;;0.80;0.70;;;27.30;35.90;;;;;;5034194;28;20041;-57
2022/08/11 16:48:52;;;;;;;0.68;0.60;;;27.30;36.10;;;;;;5037808;28;20045;-57
2022/08/11 16:51:19;;;;;;;1.15;0.75;;;27.30;36.10;;;;;;5035204;28;20120;-56
2022/08/11 16:53:46;;;;;;;0.88;0.70;;;27.30;36.10;;;;;;5036199;28;20092;-56
2022/08/11 16:56:17;;;;;;;1.20;0.70;;;27.20;36.10;;;;;;5037144;28;20045;-55
2022/08/11 17:01:36;;;;;;;1.08;0.75;;;27.20;36.10;;;;;;5035122;28;20460;-56
2022/08/11 17:18:05;;;;;;;0.85;0.70;;;27.10;36.30;;;;;;5037283;28;20084;-56
2022/08/11 17:20:32;;;;;;;0.65;0.50;;;27.10;36.40;;;;;;5035266;28;20040;-58
2022/08/11 17:25:47;;;;;;;0.70;0.68;;;27.00;36.40;;;;;;5036729;28;20527;-51
2022/08/11 17:28:17;;;;;;;0.63;0.63;;;27.00;36.40;;;;;;5037377;28;20084;-54
2022/08/11 17:36:18;;;;;;;0.70;0.60;;;27.00;36.50;;;;;;5034831;28;20032;-57
2022/08/11 17:38:46;;;;;;;0.77;0.60;;;27.00;36.50;;;;;;5035528;28;20113;-54
2022/08/11 17:49:36;;;;;;;0.55;0.52;;;27.00;36.30;;;;;;5034023;28;20044;-56
2022/08/11 18:00:23;;;;;;;1.00;0.80;;;26.90;36.30;;;;;;5034699;28;20048;-58
2022/08/11 18:05:36;;;;;;;1.77;0.75;;;26.90;36.40;;;;;;5034899;28;20029;-52
